Time;durP1;ratioP1;P1;durP2;ratioP2;P2;SDS_P1;SDS_P2;PMS_P1;PMS_P2;Temp;Humidity;BMP_temperature;BMP_pressure;BME280_temperature;BME280_humidity;BME280_pressure;Samples;Min_cycle;Max_cycle;Signal;HPM_P1;HPM_P2
2023/07/09 00:01:52;;;;;;;;;11.75;10.75;;;;;26.01;56.32;101346.84;4941629;28;45398;-70
2023/07/09 00:04:19;;;;;;;;;12.50;11.50;;;;;25.95;53.67;101338.91;4935785;28;45390;-70
2023/07/09 00:06:45;;;;;;;;;13.25;12.25;;;;;25.82;55.34;101327.53;4941165;28;45238;-70
2023/07/09 00:09:19;;;;;;;;;12.25;10.25;;;;;25.86;55.17;101357.22;4936721;28;45870;-70
2023/07/09 00:11:45;;;;;;;;;10.00;8.50;;;;;25.75;55.69;101339.50;4940993;28;46822;-70
2023/07/09 00:14:13;;;;;;;;;12.50;11.25;;;;;25.79;57.27;101355.59;4939551;28;45438;-70
2023/07/09 00:16:40;;;;;;;;;9.75;9.75;;;;;25.72;56.25;101348.59;4939870;28;45335;-70
2023/07/09 00:19:16;;;;;;;;;12.25;10.00;;;;;25.61;56.73;101348.03;4939690;28;45419;-70
2023/07/09 00:21:42;;;;;;;;;14.50;12.00;;;;;25.64;56.47;101354.22;4941159;28;46099;-70
2023/07/09 00:24:10;;;;;;;;;13.50;12.00;;;;;25.56;56.87;101353.56;4934338;28;45722;-70
2023/07/09 00:26:37;;;;;;;;;10.75;10.75;;;;;25.57;56.68;101357.16;4940602;28;45308;-70
2023/07/09 00:29:04;;;;;;;;;11.25;11.00;;;;;25.54;56.31;101368.06;4934750;28;45479;-70
2023/07/09 00:31:29;;;;;;;;;11.00;9.75;;;;;25.51;56.90;101365.47;4941170;28;45377;-70
2023/07/09 00:33:55;;;;;;;;;11.50;10.75;;;;;25.45;57.08;101359.28;4935503;28;45255;-70
2023/07/09 00:36:33;;;;;;;;;11.00;10.00;;;;;25.33;54.68;101342.53;4941104;28;45406;-70
2023/07/09 00:39:04;;;;;;;;;11.25;9.25;;;;;25.38;56.95;101375.75;4934606;28;45286;-70
2023/07/09 00:41:33;;;;;;;;;9.25;9.00;;;;;25.36;56.32;101378.50;4941121;28;46210;-70
2023/07/09 00:44:19;;;;;;;;;12.25;12.25;;;;;25.24;57.79;101365.31;4934400;28;45410;-69
2023/07/09 00:46:47;;;;;;;;;9.25;8.25;;;;;25.28;58.12;101375.13;4941069;28;45196;-70
2023/07/09 00:49:16;;;;;;;;;13.00;11.75;;;;;25.22;57.62;101372.59;4916755;28;46022;-70
2023/07/09 00:51:45;;;;;;;;;9.00;8.50;;;;;25.20;58.23;101385.25;4940591;28;46187;-70
2023/07/09 00:54:30;;;;;;;;;9.75;8.75;;;;;25.17;56.15;101388.94;4917164;28;45411;-70
2023/07/09 00:56:59;;;;;;;;;8.00;7.50;;;;;25.08;57.77;101372.03;4936197;28;45259;-70
2023/07/09 00:59:28;;;;;;;;;10.00;10.00;;;;;25.00;58.54;101373.13;4938562;28;45431;-70
2023/07/09 01:01:56;;;;;;;;;11.75;10.50;;;;;24.96;58.05;101366.03;4940691;28;45299;-70
2023/07/09 01:04:23;;;;;;;;;12.75;12.00;;;;;25.04;59.77;101386.56;4935074;28;45391;-70
2023/07/09 01:06:51;;;;;;;;;9.50;9.25;;;;;25.02;58.49;101383.91;4940861;28;45466;-70
2023/07/09 01:09:17;;;;;;;;;10.75;9.50;;;;;24.91;59.09;101381.47;4933206;28;45358;-70
2023/07/09 01:11:43;;;;;;;;;8.00;8.00;;;;;24.87;59.30;101373.47;4922585;28;48114;-70
2023/07/09 01:14:12;;;;;;;;;11.75;10.00;;;;;24.93;57.65;101395.88;4920100;28;45250;-71
2023/07/09 01:16:42;;;;;;;;;10.00;9.75;;;;;24.87;60.08;101396.03;4940699;28;45224;-70
2023/07/09 01:19:08;;;;;;;;;13.75;12.25;;;;;24.84;60.22;101401.47;4936747;28;45378;-70
2023/07/09 01:21:34;;;;;;;;;10.75;10.00;;;;;24.86;57.84;101398.75;4940348;28;45284;-70
2023/07/09 01:24:15;;;;;;;;;11.00;9.00;;;;;24.73;59.08;101390.97;4937171;28;45631;-69
2023/07/09 01:26:40;;;;;;;;;11.25;9.50;;;;;24.77;60.79;101405.28;4939466;28;45335;-70
2023/07/09 01:29:06;;;;;;;;;9.00;9.00;;;;;24.73;58.42;101403.56;4932526;28;45367;-70
2023/07/09 01:31:32;;;;;;;;;9.00;9.00;;;;;24.76;60.39;101422.44;4940160;28;45876;-69
2023/07/09 01:33:58;;;;;;;;;12.75;12.00;;;;;24.60;58.77;101399.41;4935204;28;45324;-70
2023/07/09 01:36:24;;;;;;;;;11.50;10.75;;;;;24.67;60.51;101425.34;4913554;28;45409;-70
2023/07/09 01:38:51;;;;;;;;;13.00;11.00;;;;;24.59;60.77;101408.44;4934969;28;45417;-70
2023/07/09 01:41:17;;;;;;;;;10.75;9.75;;;;;24.57;58.42;101405.78;4943337;28;46433;-70
2023/07/09 01:43:43;;;;;;;;;11.50;10.00;;;;;24.47;61.73;101393.41;4937375;28;45813;-69
2023/07/09 01:46:12;;;;;;;;;11.25;10.00;;;;;24.51;60.73;101403.22;4943685;28;45272;-71
2023/07/09 01:48:40;;;;;;;;;11.00;9.50;;;;;24.51;60.63;101412.22;4937579;28;45563;-71
2023/07/09 01:51:09;;;;;;;;;16.33;13.67;;;;;24.56;62.10;101436.41;4943345;28;45288;-71
2023/07/09 01:53:37;;;;;;;;;10.50;9.25;;;;;24.52;61.76;101422.09;4936826;28;45600;-71
2023/07/09 01:56:03;;;;;;;;;11.25;9.50;;;;;24.49;60.86;101430.28;4942645;28;45467;-71
2023/07/09 05:35:31;;;;;;;;;11.67;10.67;;;;;23.43;63.16;101458.53;5536222;23;46360;-69
2023/07/09 05:37:56;;;;;;;;;8.67;8.67;;;;;23.42;62.85;101440.59;4949736;28;45814;-69
2023/07/09 05:40:22;;;;;;;;;11.00;9.67;;;;;23.57;62.09;101445.66;4934163;28;46135;-70
2023/07/09 05:42:48;;;;;;;;;11.00;9.67;;;;;23.60;62.58;101455.53;4949095;28;45248;-70
2023/07/09 05:45:14;;;;;;;;;10.00;9.33;;;;;23.65;61.80;101465.31;4951862;28;45346;-70
2023/07/09 05:47:40;;;;;;;;;10.00;8.00;;;;;23.76;61.79;101459.75;4944248;28;45461;-70
2023/07/09 05:50:06;;;;;;;;;10.67;10.67;;;;;23.76;61.43;101440.84;4950663;28;45385;-70
2023/07/09 05:52:31;;;;;;;;;12.67;12.00;;;;;23.82;61.97;101439.81;4948149;28;45385;-70
2023/07/09 05:54:56;;;;;;;;;12.00;10.00;;;;;23.99;61.06;101461.97;4931267;28;45413;-71
2023/07/09 05:57:22;;;;;;;;;10.33;8.67;;;;;24.10;61.13;101465.34;4928420;28;46760;-70
2023/07/09 05:59:48;;;;;;;;;8.67;8.67;;;;;24.21;59.99;101464.22;4942771;28;45465;-71
2023/07/09 06:02:16;;;;;;;;;10.00;10.00;;;;;24.20;59.86;101435.41;4948620;28;45358;-70
2023/07/09 06:04:42;;;;;;;;;10.33;9.00;;;;;24.41;59.37;101447.56;4944983;28;45583;-70
2023/07/09 06:07:08;;;;;;;;;11.25;8.75;;;;;24.48;59.11;101444.72;4952855;28;46205;-70
2023/07/09 06:09:34;;;;;;;;;8.67;7.67;;;;;24.62;59.35;101443.50;4943612;28;45240;-70
2023/07/09 06:12:00;;;;;;;;;9.75;8.50;;;;;24.56;58.82;101418.41;4950379;28;45384;-70
2023/07/09 06:14:26;;;;;;;;;10.00;8.00;;;;;24.85;58.82;101445.66;4942146;28;45554;-70
2023/07/09 06:16:51;;;;;;;;;10.00;9.75;;;;;24.95;58.04;101437.25;4947053;28;45335;-70
2023/07/09 06:19:17;;;;;;;;;10.50;9.00;;;;;25.06;57.86;101433.41;4940172;28;45539;-71
2023/07/09 06:21:42;;;;;;;;;10.25;9.00;;;;;25.16;57.86;101446.69;4949272;28;45453;-70
2023/07/09 06:24:08;;;;;;;;;14.00;11.00;;;;;25.29;57.45;101452.69;4940406;28;48848;-71
2023/07/09 06:26:33;;;;;;;;;12.75;10.00;;;;;25.35;57.31;101460.63;4951336;28;45929;-70
2023/07/09 06:28:59;;;;;;;;;10.00;9.50;;;;;25.41;57.31;101473.13;4943044;28;45431;-70
2023/07/09 06:31:24;;;;;;;;;11.50;11.00;;;;;25.43;57.30;101477.56;4951832;28;45460;-70
2023/07/09 06:33:51;;;;;;;;;10.75;9.75;;;;;25.50;56.74;101480.97;4943127;28;45307;-70
2023/07/09 06:36:18;;;;;;;;;9.00;9.00;;;;;25.48;56.35;101479.25;4937948;28;48516;-70
2023/07/09 06:38:44;;;;;;;;;11.75;10.50;;;;;25.53;56.30;101489.03;4954094;28;45259;-71
2023/07/09 06:41:10;;;;;;;;;7.75;7.50;;;;;25.48;56.07;101474.72;4949630;28;45156;-70
2023/07/09 06:43:38;;;;;;;;;13.75;9.50;;;;;25.66;56.09;101493.19;4956501;28;45572;-70
2023/07/09 06:46:05;;;;;;;;;11.00;9.50;;;;;25.70;56.00;101496.69;4948459;28;45461;-71
2023/07/09 06:48:31;;;;;;;;;13.00;11.75;;;;;25.72;55.43;101488.53;4949353;28;45268;-70
2023/07/09 06:50:58;;;;;;;;;9.75;9.00;;;;;25.83;55.86;101500.00;4945709;28;45299;-70
2023/07/09 06:53:24;;;;;;;;;5.75;5.25;;;;;25.83;54.94;101476.50;4947889;28;45325;-71
2023/07/09 06:55:50;;;;;;;;;11.75;9.00;;;;;25.93;54.75;101496.06;4951272;28;45737;-71
2023/07/09 06:58:19;;;;;;;;;9.25;8.75;;;;;25.92;55.12;101513.25;4947956;28;45490;-71
2023/07/09 07:00:45;;;;;;;;;10.00;10.00;;;;;25.92;55.04;101498.84;4949211;28;45492;-70
2023/07/09 07:03:11;;;;;;;;;12.25;12.25;;;;;25.97;54.73;101499.59;4948300;28;45535;-70
2023/07/09 07:05:36;;;;;;;;;8.50;8.50;;;;;26.02;54.89;101500.34;4933126;28;46867;-68
2023/07/09 07:08:03;;;;;;;;;9.75;9.00;;;;;26.02;54.39;101522.94;4943337;28;45243;-68
2023/07/09 07:10:29;;;;;;;;;9.25;9.25;;;;;26.09;54.49;101518.19;4947265;28;45545;-70
2023/07/09 07:12:55;;;;;;;;;14.50;11.25;;;;;26.20;54.55;101523.31;4953434;28;45425;-70
2023/07/09 07:15:21;;;;;;;;;10.00;9.00;;;;;26.28;54.31;101518.56;4948833;28;45464;-71
2023/07/09 07:17:46;;;;;;;;;11.00;9.25;;;;;26.34;54.21;101489.44;4942683;28;45330;-71
2023/07/09 07:20:13;;;;;;;;;11.50;11.50;;;;;26.48;54.09;101485.44;4947357;28;45672;-71
2023/07/09 07:22:39;;;;;;;;;11.00;7.25;;;;;26.58;53.18;101478.81;4953710;28;45315;-71
2023/07/09 07:25:06;;;;;;;;;10.00;10.00;;;;;26.77;52.84;101499.00;4946311;28;45732;-71
2023/07/09 07:27:32;;;;;;;;;10.00;10.00;;;;;26.81;52.62;101510.63;4952499;28;45505;-71
2023/07/09 07:29:57;;;;;;;;;9.25;9.25;;;;;26.72;52.76;101498.25;4932985;28;45380;-71
2023/07/09 07:32:23;;;;;;;;;8.00;8.00;;;;;26.71;53.01;101488.31;4951472;28;45250;-71
2023/07/09 07:34:49;;;;;;;;;8.00;8.00;;;;;26.65;52.10;101488.53;4943894;28;45490;-71
2023/07/09 07:37:14;;;;;;;;;10.00;9.00;;;;;26.72;52.77;101506.41;4948878;28;45291;-71
2023/07/09 07:39:40;;;;;;;;;10.50;8.50;;;;;26.74;52.02;101519.88;4951732;28;45378;-71
2023/07/09 07:42:06;;;;;;;;;12.25;10.00;;;;;26.61;52.48;101515.78;4933507;28;46248;-70
2023/07/09 07:44:31;;;;;;;;;8.25;7.50;;;;;26.59;51.75;101536.66;4944035;28;45561;-70
2023/07/09 07:46:57;;;;;;;;;11.00;8.00;;;;;26.50;51.61;101536.00;4952152;28;45374;-70
2023/07/09 07:49:22;;;;;;;;;16.25;14.75;;;;;26.42;51.97;101534.41;4942446;28;45535;-71
2023/07/09 07:51:48;;;;;;;;;10.00;10.00;;;;;26.38;51.95;101554.41;4957590;28;47606;-71
2023/07/09 07:54:13;;;;;;;;;13.25;12.00;;;;;26.30;51.93;101570.91;4930240;28;46752;-74
2023/07/09 07:56:39;;;;;;;;;9.00;8.00;;;;;26.18;51.86;101590.22;4949503;28;45692;-72
2023/07/09 07:59:04;;;;;;;;;9.00;9.00;;;;;26.10;52.53;101596.75;4960528;28;45584;-70
2023/07/09 08:01:30;;;;;;;;;10.00;8.00;;;;;26.01;52.37;101590.69;4953662;28;45527;-71
2023/07/09 08:03:55;;;;;;;;;10.25;9.00;;;;;25.86;52.61;101589.28;4954051;28;46276;-72
2023/07/09 08:06:21;;;;;;;;;12.25;9.50;;;;;25.87;52.97;101601.91;4950419;28;45468;-71
2023/07/09 08:08:46;;;;;;;;;7.25;7.00;;;;;25.76;52.97;101580.47;4943492;28;45415;-70
2023/07/09 08:11:12;;;;;;;;;11.25;9.75;;;;;25.72;53.13;101558.94;4953214;28;45449;-71
2023/07/09 08:13:38;;;;;;;;;7.75;7.75;;;;;25.69;53.11;101570.75;4953585;28;48810;-71
2023/07/09 08:16:05;;;;;;;;;9.25;9.25;;;;;25.46;54.54;101530.75;4950562;28;45323;-71
2023/07/09 08:18:31;;;;;;;;;10.25;9.00;;;;;25.52;54.66;101549.53;4952674;28;45414;-71
2023/07/09 08:20:56;;;;;;;;;9.25;9.25;;;;;25.38;54.24;101555.28;4950973;28;45524;-71
2023/07/09 08:23:21;;;;;;;;;9.25;8.25;;;;;25.38;54.31;101595.88;4951748;28;45303;-71
2023/07/09 08:25:54;;;;;;;;;7.00;7.00;;;;;25.31;55.09;101593.34;4951557;28;45353;-71
2023/07/09 08:28:19;;;;;;;;;12.50;9.50;;;;;25.31;55.53;101590.66;4950470;28;45352;-71
2023/07/09 08:30:45;;;;;;;;;9.00;9.00;;;;;25.23;55.93;101578.22;4950600;28;45390;-71
2023/07/09 08:33:10;;;;;;;;;7.00;7.00;;;;;25.20;56.05;101569.25;4949304;28;45305;-71
2023/07/09 08:35:35;;;;;;;;;10.00;10.00;;;;;25.16;55.75;101581.09;4948584;28;45417;-72
2023/07/09 08:38:01;;;;;;;;;11.50;10.00;;;;;25.12;55.30;101576.63;4960428;28;45390;-71
2023/07/09 08:40:26;;;;;;;;;9.25;9.00;;;;;25.09;56.24;101552.34;4951172;28;45429;-71
2023/07/09 08:43:13;;;;;;;;;9.00;9.00;;;;;25.10;55.90;101543.34;4933250;28;47174;-71
2023/07/09 08:45:50;;;;;;;;;11.50;9.75;;;;;25.28;56.26;101567.25;4952312;28;45391;-71
2023/07/09 08:48:36;;;;;;;;;8.50;8.50;;;;;25.26;55.73;101571.81;4944998;28;45271;-72
2023/07/09 08:51:27;;;;;;;;;10.75;10.50;;;;;25.19;56.17;101554.84;4953804;28;45378;-71
2023/07/09 08:53:59;;;;;;;;;12.50;10.25;;;;;25.27;56.41;101560.06;4952657;28;45319;-71
2023/07/09 08:56:28;;;;;;;;;14.00;13.00;;;;;25.25;56.85;101550.22;4955055;28;45477;-71
2023/07/09 08:58:56;;;;;;;;;13.00;12.75;;;;;25.39;56.45;101565.19;4946349;28;45520;-71
2023/07/09 09:01:36;;;;;;;;;12.00;10.50;;;;;25.41;56.45;101589.50;4955040;28;45255;-71
2023/07/09 09:04:09;;;;;;;;;10.50;9.00;;;;;25.39;56.73;101589.53;4943296;28;46819;-70
2023/07/09 09:06:35;;;;;;;;;15.00;11.75;;;;;25.45;56.64;101589.38;4952632;28;45394;-68
2023/07/09 09:09:03;;;;;;;;;11.50;10.00;;;;;25.53;56.26;101591.03;4958248;28;45281;-70
2023/07/09 09:11:45;;;;;;;;;11.50;9.00;;;;;25.61;55.49;101589.88;4956967;28;45513;-71
2023/07/09 09:14:26;;;;;;;;;9.25;9.25;;;;;25.64;55.66;101588.94;4933919;28;47173;-71
2023/07/09 09:16:53;;;;;;;;;12.75;10.50;;;;;25.66;55.35;101587.97;4956985;28;45336;-70
2023/07/09 09:19:26;;;;;;;;;8.75;8.50;;;;;25.63;54.93;101573.63;4952024;28;45497;-70
2023/07/09 09:22:00;;;;;;;;;9.25;9.25;;;;;25.55;55.41;101549.44;4955671;28;45339;-71
2023/07/09 09:24:31;;;;;;;;;12.50;10.25;;;;;25.51;55.08;101565.78;4951529;28;46648;-71
2023/07/09 09:26:58;;;;;;;;;9.50;9.50;;;;;25.56;55.85;101591.81;4947386;28;45399;-71
2023/07/09 09:29:25;;;;;;;;;10.25;9.25;;;;;25.49;55.83;101610.94;4948113;28;45328;-71
2023/07/09 09:31:55;;;;;;;;;10.75;9.25;;;;;25.52;55.36;101638.88;4955430;28;45344;-71
2023/07/09 09:34:30;;;;;;;;;10.00;9.00;;;;;25.46;55.75;101633.59;4947649;28;46267;-72
2023/07/09 09:36:58;;;;;;;;;11.75;10.75;;;;;25.54;55.77;101620.75;4951285;28;45612;-71
2023/07/09 09:39:25;;;;;;;;;9.75;9.75;;;;;25.54;55.06;101619.84;4955545;28;45255;-74
2023/07/09 09:41:54;;;;;;;;;9.25;8.75;;;;;25.64;55.21;101632.25;4940071;28;45303;-72
2023/07/09 09:44:24;;;;;;;;;10.75;9.25;;;;;25.72;54.93;101651.91;4948534;28;45374;-71
2023/07/09 09:46:50;;;;;;;;;11.00;11.00;;;;;25.71;55.26;101643.81;4948060;28;45566;-71
2023/07/09 09:49:16;;;;;;;;;10.75;10.75;;;;;25.75;54.96;101649.13;4953803;28;45322;-71
2023/07/09 09:51:45;;;;;;;;;14.00;10.00;;;;;25.76;54.81;101640.06;4950766;28;45733;-70
2023/07/09 09:54:31;;;;;;;;;10.00;9.00;;;;;25.76;54.99;101636.47;4948972;28;46203;-71
2023/07/09 09:56:56;;;;;;;;;12.50;11.00;;;;;25.75;54.63;101619.31;4953586;28;45537;-71
2023/07/09 09:59:31;;;;;;;;;10.50;10.00;;;;;25.83;55.06;101630.00;4954134;28;45760;-70
2023/07/09 10:02:02;;;;;;;;;12.00;11.00;;;;;25.88;55.42;101619.94;4952872;28;45510;-70
2023/07/09 10:04:28;;;;;;;;;12.25;11.50;;;;;25.91;55.36;101619.88;4956906;28;45481;-69
2023/07/09 10:06:59;;;;;;;;;11.75;11.00;;;;;25.89;55.78;101619.88;4954682;28;45355;-69
2023/07/09 10:09:43;;;;;;;;;13.00;13.00;;;;;25.88;55.24;101615.41;4960782;28;45658;-69
2023/07/09 10:12:18;;;;;;;;;12.50;11.00;;;;;25.80;55.19;101611.97;4950790;28;45365;-69
2023/07/09 10:15:12;;;;;;;;;12.75;12.00;;;;;25.77;55.08;101612.06;4957549;28;46422;-69
2023/07/09 10:17:46;;;;;;;;;13.00;11.00;;;;;25.74;56.81;101609.44;4942971;28;45538;-69
2023/07/09 10:20:23;;;;;;;;;11.00;11.00;;;;;25.75;57.13;101613.03;4957376;28;45401;-68
2023/07/09 10:23:16;;;;;;;;;10.00;7.50;;;;;25.66;57.58;101587.06;4954003;28;45322;-68
2023/07/09 10:25:55;;;;;;;;;13.00;11.50;;;;;25.59;57.62;101574.59;4948401;28;45654;-68
2023/07/09 10:28:28;;;;;;;;;12.75;11.75;;;;;25.57;57.59;101584.56;4952599;28;45338;-68
2023/07/09 10:31:09;;;;;;;;;14.00;13.25;;;;;25.67;59.75;101605.09;4955673;28;45314;-69
2023/07/09 10:33:51;;;;;;;;;16.25;15.50;;;;;25.56;58.14;101599.06;4934015;28;46439;-68
2023/07/09 10:36:36;;;;;;;;;10.75;9.00;;;;;25.66;58.95;101612.34;4950048;28;45412;-68
2023/07/09 10:39:07;;;;;;;;;16.75;13.75;;;;;25.67;57.83;101615.94;4956333;28;45444;-69
2023/07/09 10:41:36;;;;;;;;;15.00;13.00;;;;;25.64;58.81;101616.00;4942227;28;45447;-69
2023/07/09 10:44:08;;;;;;;;;15.33;15.33;;;;;25.71;59.41;101616.72;4956059;28;45260;-69
2023/07/09 10:46:39;;;;;;;;;23.00;22.33;;;;;25.78;58.24;101596.69;4950254;28;45669;-69
2023/07/09 10:49:09;;;;;;;;;27.00;26.00;;;;;26.02;58.32;101606.91;4942608;28;45325;-69
2023/07/09 10:51:41;;;;;;;;;17.00;17.00;;;;;26.23;57.62;101610.84;4953939;28;45503;-69
2023/07/09 10:54:25;;;;;;;;;15.25;14.00;;;;;26.57;56.45;101615.34;4956953;28;45343;-69
2023/07/09 10:56:58;;;;;;;;;14.75;12.25;;;;;26.66;56.39;101603.31;4955772;28;45613;-69
2023/07/09 10:59:31;;;;;;;;;15.00;15.00;;;;;26.93;56.52;101596.19;4956170;28;45776;-69
2023/07/09 11:02:27;;;;;;;;;11.25;11.25;;;;;27.45;55.67;101610.84;4956408;28;45263;-69
2023/07/09 11:04:56;;;;;;;;;11.75;11.75;;;;;27.94;54.41;101614.59;4946200;28;45554;-69
2023/07/09 11:07:45;;;;;;;;;11.50;11.50;;;;;28.34;53.96;101589.59;4942196;28;47244;-69
2023/07/09 11:10:27;;;;;;;;;10.50;10.50;;;;;29.03;52.29;101601.50;4954049;28;45354;-69
2023/07/09 11:13:36;;;;;;;;;10.75;10.50;;;;;29.63;50.78;101606.34;4937385;28;45420;-69
2023/07/09 11:16:03;;;;;;;;;17.75;13.50;;;;;30.07;49.45;101594.44;4932396;28;46831;-70
2023/07/09 11:18:31;;;;;;;;;11.75;10.25;;;;;30.50;48.35;101584.31;4954542;28;46404;-69
2023/07/09 11:21:13;;;;;;;;;11.80;10.60;;;;;30.97;47.94;101562.97;4951365;28;45382;-69
2023/07/09 11:23:46;;;;;;;;;13.00;11.50;;;;;31.61;47.18;101558.00;4956212;28;45292;-69
2023/07/09 11:26:26;;;;;;;;;16.00;14.50;;;;;32.16;45.95;101552.38;4954181;28;45251;-69
2023/07/09 11:29:06;;;;;;;;;9.60;8.40;;;;;32.70;45.92;101552.16;4954791;28;46449;-69
2023/07/09 11:31:38;;;;;;;;;10.40;10.40;;;;;33.08;45.01;101551.81;4955976;28;45248;-69
2023/07/09 11:34:17;;;;;;;;;11.00;10.00;;;;;33.49;44.04;101551.22;4953545;28;45393;-69
2023/07/09 11:36:57;;;;;;;;;8.40;8.40;;;;;33.89;43.27;101557.97;4945476;28;45502;-69
2023/07/09 11:39:35;;;;;;;;;9.60;7.60;;;;;34.13;39.37;101549.19;4956006;28;46376;-69
2023/07/09 11:42:02;;;;;;;;;10.60;9.00;;;;;34.39;40.04;101542.91;4947421;28;45408;-70
2023/07/09 11:44:32;;;;;;;;;8.60;7.20;;;;;34.65;40.83;101533.03;4956016;28;45651;-70
2023/07/09 11:47:21;;;;;;;;;7.40;7.40;;;;;34.87;39.10;101557.25;4946107;28;45508;-69
2023/07/09 11:49:59;;;;;;;;;8.00;6.00;;;;;35.24;38.64;101564.94;4954087;28;46124;-69
2023/07/09 11:52:35;;;;;;;;;6.00;6.00;;;;;35.35;35.53;101570.59;4956908;28;45366;-69
2023/07/09 11:55:03;;;;;;;;;5.40;4.20;;;;;35.25;37.00;101555.69;4951343;28;45270;-69
2023/07/09 11:57:28;;;;;;;;;5.80;5.80;;;;;35.29;34.30;101566.38;4955369;28;45481;-70
2023/07/09 12:00:00;;;;;;;;;6.00;6.00;;;;;35.42;36.81;101560.91;4952408;28;46109;-70
2023/07/09 12:02:32;;;;;;;;;7.60;6.60;;;;;35.54;35.47;101546.34;4958310;28;45382;-70
2023/07/09 12:04:58;;;;;;;;;8.40;8.40;;;;;35.69;37.38;101555.41;4938723;28;45429;-70
2023/07/09 12:07:25;;;;;;;;;6.25;3.50;;;;;35.75;35.92;101538.47;4959157;28;45207;-70
2023/07/09 12:09:50;;;;;;;;;6.20;5.20;;;;;36.00;33.58;101540.38;4953375;28;45392;-69
2023/07/09 12:12:23;;;;;;;;;7.00;7.00;;;;;36.20;36.51;101527.09;4952434;28;45177;-70
2023/07/09 12:14:49;;;;;;;;;4.40;4.40;;;;;36.20;33.36;101508.69;4944806;28;45295;-70
2023/07/09 12:17:14;;;;;;;;;8.75;6.50;;;;;36.54;35.93;101520.00;4957339;28;45516;-70
2023/07/09 12:19:40;;;;;;;;;6.50;6.50;;;;;36.72;34.04;101520.53;4951152;28;46140;-71
2023/07/09 12:22:10;;;;;;;;;5.25;4.00;;;;;36.90;33.64;101519.13;4952780;28;45414;-70
2023/07/09 12:24:39;;;;;;;;;5.40;5.40;;;;;37.07;33.83;101519.78;4951429;28;45240;-70
2023/07/09 12:27:23;;;;;;;;;8.80;8.80;;;;;37.21;33.83;101518.72;4952569;28;45242;-70
2023/07/09 12:29:51;;;;;;;;;4.40;4.00;;;;;37.38;32.90;101516.41;4949103;28;45281;-70
2023/07/09 12:32:17;;;;;;;;;7.00;7.00;;;;;37.45;32.53;101524.19;4947958;28;45618;-70
2023/07/09 12:34:47;;;;;;;;;10.00;7.00;;;;;37.48;31.47;101512.94;4940672;28;45355;-70
2023/07/09 12:37:16;;;;;;;;;7.60;6.20;;;;;37.59;31.80;101526.81;4950227;28;45358;-70
2023/07/09 12:39:42;;;;;;;;;8.20;5.40;;;;;37.68;32.38;101523.31;4958447;28;46091;-70
2023/07/09 12:42:28;;;;;;;;;6.75;6.50;;;;;37.58;32.33;101516.75;4948888;28;45402;-70
2023/07/09 12:44:54;;;;;;;;;4.00;4.00;;;;;37.70;33.02;101515.81;4955909;28;45358;-70
2023/07/09 12:47:23;;;;;;;;;7.00;5.50;;;;;37.77;30.41;101527.22;4954064;28;45339;-70
2023/07/09 12:49:51;;;;;;;;;5.00;4.80;;;;;37.87;31.75;101522.75;4938828;28;45345;-70
2023/07/09 12:52:22;;;;;;;;;5.60;5.20;;;;;37.88;29.94;101523.63;4955272;28;45510;-70
2023/07/09 12:55:02;;;;;;;;;5.40;5.40;;;;;37.97;30.27;101525.66;4958817;28;45237;-70
2023/07/09 12:57:30;;;;;;;;;2.80;2.80;;;;;37.91;28.74;101515.97;4955979;28;45355;-70
2023/07/09 12:59:56;;;;;;;;;4.80;4.80;;;;;37.99;29.35;101523.66;4950637;28;47252;-70
2023/07/09 13:02:25;;;;;;;;;6.50;3.50;;;;;37.72;30.46;101515.66;4948667;28;45341;-70
2023/07/09 13:04:58;;;;;;;;;6.20;3.20;;;;;37.60;29.08;101501.84;4957643;28;45430;-70
2023/07/09 13:07:23;;;;;;;;;4.40;4.40;;;;;37.70;30.22;101526.84;4949588;28;45433;-70
2023/07/09 13:09:51;;;;;;;;;5.25;3.50;;;;;37.75;30.45;101527.34;4951428;28;46488;-70
2023/07/09 13:12:16;;;;;;;;;3.00;3.00;;;;;37.65;29.66;101515.28;4958837;28;45415;-70
2023/07/09 13:14:41;;;;;;;;;3.75;3.00;;;;;37.56;29.76;101503.09;4951222;28;45149;-70
2023/07/09 13:17:09;;;;;;;;;4.00;4.00;;;;;37.60;29.48;101512.88;4958701;28;45399;-70
2023/07/09 13:19:35;;;;;;;;;2.00;2.00;;;;;37.44;30.53;101512.28;4951400;28;46350;-70
2023/07/09 13:22:02;;;;;;;;;2.60;2.60;;;;;37.43;29.65;101499.50;4957239;28;45359;-70
2023/07/09 13:24:32;;;;;;;;;4.00;4.00;;;;;37.49;29.70;101506.44;4943607;28;45622;-70
2023/07/09 13:26:59;;;;;;;;;4.20;4.20;;;;;37.49;28.97;101499.03;4937317;28;46094;-70
2023/07/09 13:29:25;;;;;;;;;6.00;4.60;;;;;37.57;28.37;101517.75;4946728;28;46244;-70
2023/07/09 13:31:50;;;;;;;;;2.00;0.00;;;;;37.63;29.42;101522.78;4955031;28;45895;-70
2023/07/09 13:34:35;;;;;;;;;5.00;3.75;;;;;37.59;29.94;101518.53;4950767;28;45550;-70
2023/07/09 13:37:00;;;;;;;;;4.00;3.00;;;;;37.75;28.16;101527.34;4958472;28;45495;-71
2023/07/09 13:39:26;;;;;;;;;4.00;4.00;;;;;37.86;28.13;101523.72;4962770;28;45416;-70
2023/07/09 13:41:55;;;;;;;;;2.00;2.00;;;;;37.92;28.04;101526.00;4957997;28;45945;-70
2023/07/09 13:44:27;;;;;;;;;6.00;4.00;;;;;37.92;28.27;101523.22;4955283;28;45481;-70
2023/07/09 13:46:53;;;;;;;;;3.40;3.40;;;;;37.89;29.94;101522.59;4963281;28;45227;-70
2023/07/09 13:49:21;;;;;;;;;4.40;3.80;;;;;37.85;30.34;101521.97;4949486;28;45529;-70
2023/07/09 13:51:49;;;;;;;;;4.20;2.80;;;;;37.72;29.52;101521.19;4958232;28;45206;-70
2023/07/09 13:54:18;;;;;;;;;4.00;4.00;;;;;37.52;28.74;101517.25;4948130;28;45402;-70
2023/07/09 13:56:45;;;;;;;;;4.00;4.00;;;;;37.41;29.28;101527.19;4959673;28;45296;-70
2023/07/09 13:59:29;;;;;;;;;5.60;4.20;;;;;37.12;29.06;101523.06;4958634;28;45239;-70
2023/07/09 14:01:56;;;;;;;;;6.80;4.80;;;;;36.94;29.47;101525.28;4960220;28;45278;-70
2023/07/09 14:04:23;;;;;;;;;3.40;3.40;;;;;36.72;29.62;101520.53;4954877;28;45391;-70
2023/07/09 14:06:48;;;;;;;;;2.80;1.60;;;;;36.46;29.93;101523.28;4960790;28;45706;-70
2023/07/09 14:09:15;;;;;;;;;3.25;3.25;;;;;36.19;29.33;101517.06;4956909;28;46391;-70
2023/07/09 14:11:45;;;;;;;;;3.40;2.20;;;;;36.03;31.04;101531.03;4943422;28;46163;-70
2023/07/09 14:14:30;;;;;;;;;6.40;5.80;;;;;35.71;30.77;101536.94;4960820;28;45258;-70
2023/07/09 14:16:55;;;;;;;;;3.40;3.00;;;;;35.49;30.42;101534.78;4959666;28;45259;-69
2023/07/09 14:19:23;;;;;;;;;5.25;3.00;;;;;35.28;31.46;101536.22;4955437;28;45373;-70
2023/07/09 14:21:51;;;;;;;;;4.20;2.40;;;;;35.05;30.71;101535.00;4958341;28;45491;-70
2023/07/09 14:24:21;;;;;;;;;3.20;2.60;;;;;34.94;30.99;101541.22;4961138;28;45354;-70
2023/07/09 14:26:51;;;;;;;;;4.60;3.00;;;;;34.83;31.44;101549.28;4960463;28;45334;-70
2023/07/09 14:29:18;;;;;;;;;4.00;3.00;;;;;34.66;31.28;101534.81;4960044;28;46877;-70
2023/07/09 14:31:44;;;;;;;;;3.80;3.80;;;;;34.58;31.66;101537.16;4959000;28;45278;-70
2023/07/09 14:34:28;;;;;;;;;3.00;3.00;;;;;34.36;32.47;101545.88;4955967;28;45453;-70
2023/07/09 14:37:00;;;;;;;;;2.20;2.20;;;;;34.01;32.90;101545.34;4960984;28;45444;-70
2023/07/09 14:39:28;;;;;;;;;4.00;4.00;;;;;33.67;32.59;101543.78;4960153;28;45362;-70
2023/07/09 14:41:55;;;;;;;;;5.20;5.20;;;;;33.52;33.05;101557.44;4962371;28;45512;-70
2023/07/09 14:44:29;;;;;;;;;6.40;4.00;;;;;33.35;33.62;101555.69;4953148;28;45243;-70
2023/07/09 14:46:57;;;;;;;;;4.00;4.00;;;;;33.28;33.74;101565.25;4950758;28;45603;-70
2023/07/09 14:49:23;;;;;;;;;4.80;4.00;;;;;33.23;33.63;101563.75;4943623;28;45421;-70
2023/07/09 14:51:51;;;;;;;;;5.20;3.20;;;;;33.04;33.92;101559.34;4953964;28;45426;-70
2023/07/09 14:54:23;;;;;;;;;4.20;3.80;;;;;32.85;34.44;101567.69;4960305;28;45295;-70
2023/07/09 14:56:50;;;;;;;;;5.60;4.80;;;;;32.70;34.38;101560.38;4950648;28;45488;-69
2023/07/09 14:59:16;;;;;;;;;5.60;4.00;;;;;32.57;34.73;101567.50;4957963;28;47325;-70
2023/07/09 15:01:43;;;;;;;;;7.00;5.25;;;;;32.48;35.04;101571.63;4947989;28;45387;-70
2023/07/09 15:04:28;;;;;;;;;3.60;3.60;;;;;32.28;35.10;101548.94;4961136;28;45244;-70
2023/07/09 15:06:55;;;;;;;;;5.00;5.00;;;;;32.22;35.37;101568.44;4951412;28;45500;-70
2023/07/09 15:09:23;;;;;;;;;4.60;4.00;;;;;32.18;35.05;101572.31;4960095;28;46204;-70